sensor_id;sensor_type;location;lat;lon;timestamp;temperature;humidity
49379;DHT22;35254;47.990;-1.608;2023-02-03T00:01:31;20.10;51.90
49379;DHT22;35254;47.990;-1.608;2023-02-03T00:03:57;20.10;51.80
49379;DHT22;35254;47.990;-1.608;2023-02-03T00:06:23;20.10;51.40
49379;DHT22;35254;47.990;-1.608;2023-02-03T00:08:52;20.10;51.70
49379;DHT22;35254;47.990;-1.608;2023-02-03T00:11:19;20.10;51.30
49379;DHT22;35254;47.990;-1.608;2023-02-03T00:13:44;20.10;51.40
49379;DHT22;35254;47.990;-1.608;2023-02-03T00:16:10;20.10;51.10
49379;DHT22;35254;47.990;-1.608;2023-02-03T00:18:35;20.10;51.10
49379;DHT22;35254;47.990;-1.608;2023-02-03T00:21:01;20.10;50.60
49379;DHT22;35254;47.990;-1.608;2023-02-03T00:23:27;20.10;50.90
49379;DHT22;35254;47.990;-1.608;2023-02-03T00:25:57;20.10;50.60
49379;DHT22;35254;47.990;-1.608;2023-02-03T00:28:23;20.10;50.70
49379;DHT22;35254;47.990;-1.608;2023-02-03T00:30:48;20.10;50.60
49379;DHT22;35254;47.990;-1.608;2023-02-03T00:33:14;20.10;50.60
49379;DHT22;35254;47.990;-1.608;2023-02-03T00:35:40;20.10;50.10
49379;DHT22;35254;47.990;-1.608;2023-02-03T00:38:05;20.10;50.30
49379;DHT22;35254;47.990;-1.608;2023-02-03T00:40:31;20.10;50.20
49379;DHT22;35254;47.990;-1.608;2023-02-03T00:42:56;20.10;50.20
49379;DHT22;35254;47.990;-1.608;2023-02-03T00:45:23;20.10;50.30
49379;DHT22;35254;47.990;-1.608;2023-02-03T00:47:49;20.00;50.20
49379;DHT22;35254;47.990;-1.608;2023-02-03T00:50:15;20.00;49.90
49379;DHT22;35254;47.990;-1.608;2023-02-03T00:52:40;20.00;49.80
49379;DHT22;35254;47.990;-1.608;2023-02-03T00:55:06;20.00;49.90
49379;DHT22;35254;47.990;-1.608;2023-02-03T00:57:32;20.00;49.80
49379;DHT22;35254;47.990;-1.608;2023-02-03T00:59:58;20.00;49.70
49379;DHT22;35254;47.990;-1.608;2023-02-03T01:02:23;20.00;49.70
49379;DHT22;35254;47.990;-1.608;2023-02-03T01:04:49;20.00;50.20
49379;DHT22;35254;47.990;-1.608;2023-02-03T01:07:15;20.00;49.90
49379;DHT22;35254;47.990;-1.608;2023-02-03T01:09:41;20.00;49.50
49379;DHT22;35254;47.990;-1.608;2023-02-03T01:12:06;20.00;49.60
49379;DHT22;35254;47.990;-1.608;2023-02-03T01:14:32;20.00;49.30
49379;DHT22;35254;47.990;-1.608;2023-02-03T01:16:59;20.00;49.60
49379;DHT22;35254;47.990;-1.608;2023-02-03T01:19:25;20.00;49.30
49379;DHT22;35254;47.990;-1.608;2023-02-03T01:21:50;20.00;49.40
49379;DHT22;35254;47.990;-1.608;2023-02-03T01:24:16;19.90;49.20
49379;DHT22;35254;47.990;-1.608;2023-02-03T01:26:42;20.00;49.40
49379;DHT22;35254;47.990;-1.608;2023-02-03T01:29:08;20.00;49.20
49379;DHT22;35254;47.990;-1.608;2023-02-03T01:31:36;20.00;49.10
49379;DHT22;35254;47.990;-1.608;2023-02-03T01:34:05;19.90;49.00
49379;DHT22;35254;47.990;-1.608;2023-02-03T01:36:33;19.90;49.00
49379;DHT22;35254;47.990;-1.608;2023-02-03T01:38:59;20.00;48.80
49379;DHT22;35254;47.990;-1.608;2023-02-03T01:41:31;20.00;49.00
49379;DHT22;35254;47.990;-1.608;2023-02-03T01:43:58;20.00;49.10
49379;DHT22;35254;47.990;-1.608;2023-02-03T01:46:43;20.00;49.20
49379;DHT22;35254;47.990;-1.608;2023-02-03T01:49:21;20.00;49.20
49379;DHT22;35254;47.990;-1.608;2023-02-03T01:51:48;20.00;49.20
49379;DHT22;35254;47.990;-1.608;2023-02-03T01:54:25;20.00;49.20
49379;DHT22;35254;47.990;-1.608;2023-02-03T01:56:56;20.00;49.10
49379;DHT22;35254;47.990;-1.608;2023-02-03T01:59:23;20.00;49.10
49379;DHT22;35254;47.990;-1.608;2023-02-03T02:01:51;20.00;49.10
49379;DHT22;35254;47.990;-1.608;2023-02-03T02:04:19;20.00;49.00
49379;DHT22;35254;47.990;-1.608;2023-02-03T02:06:46;20.00;49.10
49379;DHT22;35254;47.990;-1.608;2023-02-03T02:09:13;20.00;49.00
49379;DHT22;35254;47.990;-1.608;2023-02-03T02:11:40;20.00;49.10
49379;DHT22;35254;47.990;-1.608;2023-02-03T02:14:06;20.00;49.00
49379;DHT22;35254;47.990;-1.608;2023-02-03T02:22:46;20.00;49.10
49379;DHT22;35254;47.990;-1.608;2023-02-03T02:33:13;20.00;48.90
49379;DHT22;35254;47.990;-1.608;2023-02-03T02:36:06;20.00;49.00
49379;DHT22;35254;47.990;-1.608;2023-02-03T02:46:47;19.90;48.80
49379;DHT22;35254;47.990;-1.608;2023-02-03T02:49:35;19.90;48.80
49379;DHT22;35254;47.990;-1.608;2023-02-03T02:52:03;19.90;48.70
49379;DHT22;35254;47.990;-1.608;2023-02-03T02:54:31;19.90;48.50
49379;DHT22;35254;47.990;-1.608;2023-02-03T02:57:00;19.90;48.50
49379;DHT22;35254;47.990;-1.608;2023-02-03T02:59:26;19.90;48.40
49379;DHT22;35254;47.990;-1.608;2023-02-03T03:01:51;19.90;48.40
49379;DHT22;35254;47.990;-1.608;2023-02-03T03:04:21;20.00;48.30
49379;DHT22;35254;47.990;-1.608;2023-02-03T03:06:59;20.00;48.20
49379;DHT22;35254;47.990;-1.608;2023-02-03T03:09:32;20.00;48.30
49379;DHT22;35254;47.990;-1.608;2023-02-03T03:12:09;19.90;48.30
49379;DHT22;35254;47.990;-1.608;2023-02-03T03:14:41;19.90;48.20
49379;DHT22;35254;47.990;-1.608;2023-02-03T03:17:11;19.90;48.30
49379;DHT22;35254;47.990;-1.608;2023-02-03T03:19:41;19.90;48.10
49379;DHT22;35254;47.990;-1.608;2023-02-03T03:22:11;19.90;48.10
49379;DHT22;35254;47.990;-1.608;2023-02-03T03:24:46;19.90;48.10
49379;DHT22;35254;47.990;-1.608;2023-02-03T03:27:14;19.90;48.10
49379;DHT22;35254;47.990;-1.608;2023-02-03T03:29:47;19.90;48.10
49379;DHT22;35254;47.990;-1.608;2023-02-03T03:32:14;19.90;48.00
49379;DHT22;35254;47.990;-1.608;2023-02-03T03:34:41;19.90;48.10
49379;DHT22;35254;47.990;-1.608;2023-02-03T03:39:43;19.90;48.00
49379;DHT22;35254;47.990;-1.608;2023-02-03T03:42:21;19.90;47.90
49379;DHT22;35254;47.990;-1.608;2023-02-03T03:44:58;19.90;48.00
49379;DHT22;35254;47.990;-1.608;2023-02-03T03:47:52;19.90;47.80
49379;DHT22;35254;47.990;-1.608;2023-02-03T03:50:24;19.90;48.00
49379;DHT22;35254;47.990;-1.608;2023-02-03T03:52:52;19.90;47.80
49379;DHT22;35254;47.990;-1.608;2023-02-03T03:55:19;19.80;47.80
49379;DHT22;35254;47.990;-1.608;2023-02-03T03:57:55;19.80;47.60
49379;DHT22;35254;47.990;-1.608;2023-02-03T04:00:25;19.80;47.90
49379;DHT22;35254;47.990;-1.608;2023-02-03T04:02:54;19.80;47.80
49379;DHT22;35254;47.990;-1.608;2023-02-03T04:05:21;19.80;47.50
49379;DHT22;35254;47.990;-1.608;2023-02-03T04:07:47;19.80;47.60
49379;DHT22;35254;47.990;-1.608;2023-02-03T04:10:32;19.80;47.50
49379;DHT22;35254;47.990;-1.608;2023-02-03T04:12:58;19.80;47.70
49379;DHT22;35254;47.990;-1.608;2023-02-03T04:15:24;19.80;47.60
49379;DHT22;35254;47.990;-1.608;2023-02-03T04:17:50;19.80;47.60
49379;DHT22;35254;47.990;-1.608;2023-02-03T04:20:16;19.80;47.40
49379;DHT22;35254;47.990;-1.608;2023-02-03T04:22:42;19.80;47.40
49379;DHT22;35254;47.990;-1.608;2023-02-03T04:25:07;19.80;47.30
49379;DHT22;35254;47.990;-1.608;2023-02-03T04:27:34;19.80;47.40
49379;DHT22;35254;47.990;-1.608;2023-02-03T04:29:59;19.90;47.30
49379;DHT22;35254;47.990;-1.608;2023-02-03T04:32:25;19.80;47.20
49379;DHT22;35254;47.990;-1.608;2023-02-03T04:34:51;19.80;47.30
49379;DHT22;35254;47.990;-1.608;2023-02-03T04:37:17;19.80;47.40
49379;DHT22;35254;47.990;-1.608;2023-02-03T04:39:42;19.70;47.20
49379;DHT22;35254;47.990;-1.608;2023-02-03T04:42:08;19.80;47.20
49379;DHT22;35254;47.990;-1.608;2023-02-03T04:44:34;19.80;47.30
49379;DHT22;35254;47.990;-1.608;2023-02-03T04:46:59;19.80;47.50
49379;DHT22;35254;47.990;-1.608;2023-02-03T04:49:25;19.80;47.40
49379;DHT22;35254;47.990;-1.608;2023-02-03T04:51:51;19.80;47.50
49379;DHT22;35254;47.990;-1.608;2023-02-03T04:54:16;19.80;47.50
49379;DHT22;35254;47.990;-1.608;2023-02-03T04:56:42;19.80;47.30
49379;DHT22;35254;47.990;-1.608;2023-02-03T04:59:08;19.80;47.30
49379;DHT22;35254;47.990;-1.608;2023-02-03T05:01:33;19.70;47.00
49379;DHT22;35254;47.990;-1.608;2023-02-03T05:03:59;19.80;46.90
49379;DHT22;35254;47.990;-1.608;2023-02-03T05:06:26;19.80;46.80
49379;DHT22;35254;47.990;-1.608;2023-02-03T05:08:53;19.80;46.90
49379;DHT22;35254;47.990;-1.608;2023-02-03T05:11:22;19.70;46.90
49379;DHT22;35254;47.990;-1.608;2023-02-03T05:13:48;19.80;47.00
49379;DHT22;35254;47.990;-1.608;2023-02-03T05:16:14;19.80;47.00
49379;DHT22;35254;47.990;-1.608;2023-02-03T05:18:39;19.80;47.00
49379;DHT22;35254;47.990;-1.608;2023-02-03T05:21:05;19.70;47.00
49379;DHT22;35254;47.990;-1.608;2023-02-03T05:23:31;19.70;46.80
49379;DHT22;35254;47.990;-1.608;2023-02-03T05:25:57;19.70;47.00
49379;DHT22;35254;47.990;-1.608;2023-02-03T05:28:22;19.70;47.10
49379;DHT22;35254;47.990;-1.608;2023-02-03T05:30:48;19.70;47.00
49379;DHT22;35254;47.990;-1.608;2023-02-03T05:33:13;19.70;46.90
49379;DHT22;35254;47.990;-1.608;2023-02-03T05:35:39;19.70;46.80
49379;DHT22;35254;47.990;-1.608;2023-02-03T05:38:05;19.70;46.90
49379;DHT22;35254;47.990;-1.608;2023-02-03T05:40:30;19.70;46.90
49379;DHT22;35254;47.990;-1.608;2023-02-03T05:43:15;19.70;46.90
49379;DHT22;35254;47.990;-1.608;2023-02-03T05:45:40;19.70;46.80
49379;DHT22;35254;47.990;-1.608;2023-02-03T05:48:06;19.70;46.80
49379;DHT22;35254;47.990;-1.608;2023-02-03T05:50:32;19.70;46.90
49379;DHT22;35254;47.990;-1.608;2023-02-03T05:52:59;19.70;47.00
49379;DHT22;35254;47.990;-1.608;2023-02-03T05:55:26;19.70;46.80
49379;DHT22;35254;47.990;-1.608;2023-02-03T05:57:52;19.70;46.50
49379;DHT22;35254;47.990;-1.608;2023-02-03T06:00:18;19.70;46.70
49379;DHT22;35254;47.990;-1.608;2023-02-03T06:02:55;19.70;46.70
49379;DHT22;35254;47.990;-1.608;2023-02-03T06:05:22;19.70;46.70
49379;DHT22;35254;47.990;-1.608;2023-02-03T06:07:48;19.70;46.60
49379;DHT22;35254;47.990;-1.608;2023-02-03T06:10:14;19.70;46.50
49379;DHT22;35254;47.990;-1.608;2023-02-03T06:12:40;19.70;46.40
49379;DHT22;35254;47.990;-1.608;2023-02-03T06:15:06;19.60;46.60
49379;DHT22;35254;47.990;-1.608;2023-02-03T06:17:32;19.60;46.60
49379;DHT22;35254;47.990;-1.608;2023-02-03T06:19:58;19.60;46.90
49379;DHT22;35254;47.990;-1.608;2023-02-03T06:22:24;19.70;46.80
49379;DHT22;35254;47.990;-1.608;2023-02-03T06:24:49;19.60;46.80
49379;DHT22;35254;47.990;-1.608;2023-02-03T06:27:15;19.60;47.00
49379;DHT22;35254;47.990;-1.608;2023-02-03T06:29:41;19.60;46.90
49379;DHT22;35254;47.990;-1.608;2023-02-03T06:32:07;19.60;47.00
49379;DHT22;35254;47.990;-1.608;2023-02-03T06:34:33;19.60;46.90
49379;DHT22;35254;47.990;-1.608;2023-02-03T06:36:59;19.60;47.10
49379;DHT22;35254;47.990;-1.608;2023-02-03T06:39:25;19.50;46.80
49379;DHT22;35254;47.990;-1.608;2023-02-03T06:41:51;19.60;47.00
49379;DHT22;35254;47.990;-1.608;2023-02-03T06:44:17;19.60;47.00
49379;DHT22;35254;47.990;-1.608;2023-02-03T06:46:43;19.60;46.90
49379;DHT22;35254;47.990;-1.608;2023-02-03T06:49:09;19.60;47.00
49379;DHT22;35254;47.990;-1.608;2023-02-03T06:51:35;19.50;46.90
49379;DHT22;35254;47.990;-1.608;2023-02-03T06:54:00;19.60;46.90
49379;DHT22;35254;47.990;-1.608;2023-02-03T06:56:28;19.50;46.90
49379;DHT22;35254;47.990;-1.608;2023-02-03T06:58:54;19.50;46.90
49379;DHT22;35254;47.990;-1.608;2023-02-03T07:01:19;19.50;46.90
49379;DHT22;35254;47.990;-1.608;2023-02-03T07:03:45;19.50;46.90
49379;DHT22;35254;47.990;-1.608;2023-02-03T07:06:12;19.50;46.90
49379;DHT22;35254;47.990;-1.608;2023-02-03T07:08:37;19.50;46.90
49379;DHT22;35254;47.990;-1.608;2023-02-03T07:11:03;19.50;46.70
49379;DHT22;35254;47.990;-1.608;2023-02-03T07:13:29;19.50;46.90
49379;DHT22;35254;47.990;-1.608;2023-02-03T07:15:54;19.50;46.80
49379;DHT22;35254;47.990;-1.608;2023-02-03T07:18:20;19.50;46.90
49379;DHT22;35254;47.990;-1.608;2023-02-03T07:20:49;19.40;46.70
49379;DHT22;35254;47.990;-1.608;2023-02-03T07:23:15;19.50;46.80
49379;DHT22;35254;47.990;-1.608;2023-02-03T07:25:41;19.50;46.90
49379;DHT22;35254;47.990;-1.608;2023-02-03T07:28:08;19.50;46.70
49379;DHT22;35254;47.990;-1.608;2023-02-03T07:30:33;19.50;46.70
49379;DHT22;35254;47.990;-1.608;2023-02-03T07:32:59;19.50;47.20
49379;DHT22;35254;47.990;-1.608;2023-02-03T07:35:25;19.50;47.10
49379;DHT22;35254;47.990;-1.608;2023-02-03T07:37:52;19.50;46.70
49379;DHT22;35254;47.990;-1.608;2023-02-03T07:40:18;19.50;47.10
49379;DHT22;35254;47.990;-1.608;2023-02-03T07:42:45;19.50;47.40
49379;DHT22;35254;47.990;-1.608;2023-02-03T07:45:13;19.50;47.50
49379;DHT22;35254;47.990;-1.608;2023-02-03T07:47:40;19.50;47.90
49379;DHT22;35254;47.990;-1.608;2023-02-03T07:50:05;19.50;48.00
49379;DHT22;35254;47.990;-1.608;2023-02-03T07:52:31;19.50;48.20
49379;DHT22;35254;47.990;-1.608;2023-02-03T07:54:57;19.50;48.50
49379;DHT22;35254;47.990;-1.608;2023-02-03T07:57:22;19.50;48.70
49379;DHT22;35254;47.990;-1.608;2023-02-03T07:59:48;19.60;49.00
49379;DHT22;35254;47.990;-1.608;2023-02-03T08:02:14;19.60;49.10
49379;DHT22;35254;47.990;-1.608;2023-02-03T08:04:39;19.50;49.20
49379;DHT22;35254;47.990;-1.608;2023-02-03T08:07:05;19.50;49.40
49379;DHT22;35254;47.990;-1.608;2023-02-03T08:09:30;19.50;49.30
49379;DHT22;35254;47.990;-1.608;2023-02-03T08:11:56;19.50;48.20
49379;DHT22;35254;47.990;-1.608;2023-02-03T08:14:21;19.50;48.20
49379;DHT22;35254;47.990;-1.608;2023-02-03T08:16:48;19.60;49.30
49379;DHT22;35254;47.990;-1.608;2023-02-03T08:19:14;19.50;49.80
49379;DHT22;35254;47.990;-1.608;2023-02-03T08:21:39;19.50;49.60
49379;DHT22;35254;47.990;-1.608;2023-02-03T08:24:05;19.50;48.70
49379;DHT22;35254;47.990;-1.608;2023-02-03T08:26:31;19.50;47.90
49379;DHT22;35254;47.990;-1.608;2023-02-03T08:28:56;19.50;47.60
49379;DHT22;35254;47.990;-1.608;2023-02-03T08:31:22;19.50;47.50
49379;DHT22;35254;47.990;-1.608;2023-02-03T08:33:47;19.50;47.70
49379;DHT22;35254;47.990;-1.608;2023-02-03T08:36:13;19.60;53.20
49379;DHT22;35254;47.990;-1.608;2023-02-03T08:38:39;19.60;51.60
49379;DHT22;35254;47.990;-1.608;2023-02-03T08:41:10;19.60;51.50
49379;DHT22;35254;47.990;-1.608;2023-02-03T08:43:36;19.60;51.50
49379;DHT22;35254;47.990;-1.608;2023-02-03T08:46:07;19.60;51.40
49379;DHT22;35254;47.990;-1.608;2023-02-03T08:48:33;19.60;51.30
49379;DHT22;35254;47.990;-1.608;2023-02-03T08:50:59;19.60;51.40
49379;DHT22;35254;47.990;-1.608;2023-02-03T08:53:24;19.60;50.90
49379;DHT22;35254;47.990;-1.608;2023-02-03T08:55:50;19.60;51.20
49379;DHT22;35254;47.990;-1.608;2023-02-03T08:58:16;19.60;51.50
49379;DHT22;35254;47.990;-1.608;2023-02-03T09:00:42;19.60;51.40
49379;DHT22;35254;47.990;-1.608;2023-02-03T09:03:08;19.60;51.20
49379;DHT22;35254;47.990;-1.608;2023-02-03T09:05:33;19.60;50.80
49379;DHT22;35254;47.990;-1.608;2023-02-03T09:07:59;19.60;51.20
49379;DHT22;35254;47.990;-1.608;2023-02-03T09:10:25;19.60;51.20
49379;DHT22;35254;47.990;-1.608;2023-02-03T09:12:50;19.60;50.80
49379;DHT22;35254;47.990;-1.608;2023-02-03T09:15:16;19.60;50.70
49379;DHT22;35254;47.990;-1.608;2023-02-03T09:17:42;19.60;51.70
49379;DHT22;35254;47.990;-1.608;2023-02-03T09:20:09;19.60;51.90
49379;DHT22;35254;47.990;-1.608;2023-02-03T09:22:37;19.60;51.00
49379;DHT22;35254;47.990;-1.608;2023-02-03T09:25:04;19.60;51.00
49379;DHT22;35254;47.990;-1.608;2023-02-03T09:27:29;19.60;51.70
49379;DHT22;35254;47.990;-1.608;2023-02-03T09:29:55;19.60;52.20
49379;DHT22;35254;47.990;-1.608;2023-02-03T09:32:23;19.60;51.40
49379;DHT22;35254;47.990;-1.608;2023-02-03T09:34:49;19.70;51.90
49379;DHT22;35254;47.990;-1.608;2023-02-03T09:37:15;19.60;52.40
49379;DHT22;35254;47.990;-1.608;2023-02-03T09:39:41;19.70;52.50
49379;DHT22;35254;47.990;-1.608;2023-02-03T09:42:42;19.70;51.60
49379;DHT22;35254;47.990;-1.608;2023-02-03T09:45:27;19.70;51.50
49379;DHT22;35254;47.990;-1.608;2023-02-03T09:47:58;19.70;52.20
49379;DHT22;35254;47.990;-1.608;2023-02-03T09:50:27;19.70;51.80
49379;DHT22;35254;47.990;-1.608;2023-02-03T09:52:55;19.70;51.50
49379;DHT22;35254;47.990;-1.608;2023-02-03T09:58:10;19.70;52.90
49379;DHT22;35254;47.990;-1.608;2023-02-03T10:00:42;19.70;51.60
49379;DHT22;35254;47.990;-1.608;2023-02-03T10:03:37;19.70;51.50
49379;DHT22;35254;47.990;-1.608;2023-02-03T10:06:36;19.70;52.60
49379;DHT22;35254;47.990;-1.608;2023-02-03T10:09:07;19.70;52.50
49379;DHT22;35254;47.990;-1.608;2023-02-03T10:11:50;19.70;52.10
49379;DHT22;35254;47.990;-1.608;2023-02-03T10:22:53;19.70;52.80
49379;DHT22;35254;47.990;-1.608;2023-02-03T10:28:00;19.80;52.90
49379;DHT22;35254;47.990;-1.608;2023-02-03T10:30:31;19.90;52.30
49379;DHT22;35254;47.990;-1.608;2023-02-03T10:33:17;19.90;53.80
49379;DHT22;35254;47.990;-1.608;2023-02-03T10:35:52;19.90;53.80
49379;DHT22;35254;47.990;-1.608;2023-02-03T10:41:08;20.00;52.50
49379;DHT22;35254;47.990;-1.608;2023-02-03T10:43:35;20.00;53.80
49379;DHT22;35254;47.990;-1.608;2023-02-03T10:46:14;20.10;53.30
49379;DHT22;35254;47.990;-1.608;2023-02-03T10:48:40;20.00;52.80
49379;DHT22;35254;47.990;-1.608;2023-02-03T10:51:16;20.10;53.80
49379;DHT22;35254;47.990;-1.608;2023-02-03T10:53:43;20.10;54.10
49379;DHT22;35254;47.990;-1.608;2023-02-03T10:56:12;20.10;53.10
49379;DHT22;35254;47.990;-1.608;2023-02-03T10:58:44;20.10;52.90
49379;DHT22;35254;47.990;-1.608;2023-02-03T11:01:15;20.10;54.20
49379;DHT22;35254;47.990;-1.608;2023-02-03T11:04:03;20.10;54.20
49379;DHT22;35254;47.990;-1.608;2023-02-03T11:06:32;20.00;52.70
49379;DHT22;35254;47.990;-1.608;2023-02-03T11:08:59;20.00;53.70
49379;DHT22;35254;47.990;-1.608;2023-02-03T11:16:29;20.00;53.30
49379;DHT22;35254;47.990;-1.608;2023-02-03T11:19:02;20.10;54.40
49379;DHT22;35254;47.990;-1.608;2023-02-03T11:24:25;20.10;53.90
49379;DHT22;35254;47.990;-1.608;2023-02-03T11:29:30;20.10;54.50
49379;DHT22;35254;47.990;-1.608;2023-02-03T11:31:59;20.10;54.30
49379;DHT22;35254;47.990;-1.608;2023-02-03T11:34:32;20.10;54.30
49379;DHT22;35254;47.990;-1.608;2023-02-03T11:42:33;20.10;54.10
49379;DHT22;35254;47.990;-1.608;2023-02-03T11:45:34;20.10;54.40
49379;DHT22;35254;47.990;-1.608;2023-02-03T12:04:42;20.20;55.20
49379;DHT22;35254;47.990;-1.608;2023-02-03T12:10:20;20.20;54.60
49379;DHT22;35254;47.990;-1.608;2023-02-03T12:24:36;20.40;54.40
49379;DHT22;35254;47.990;-1.608;2023-02-03T12:29:58;20.40;54.00
49379;DHT22;35254;47.990;-1.608;2023-02-03T12:32:44;20.50;52.70
49379;DHT22;35254;47.990;-1.608;2023-02-03T12:35:26;20.50;52.30
49379;DHT22;35254;47.990;-1.608;2023-02-03T12:38:28;20.40;51.90
49379;DHT22;35254;47.990;-1.608;2023-02-03T12:40:59;20.40;51.50
49379;DHT22;35254;47.990;-1.608;2023-02-03T12:43:45;20.30;51.30
49379;DHT22;35254;47.990;-1.608;2023-02-03T12:51:14;20.30;50.80
49379;DHT22;35254;47.990;-1.608;2023-02-03T12:53:49;20.30;50.40
49379;DHT22;35254;47.990;-1.608;2023-02-03T12:56:22;20.40;50.50
49379;DHT22;35254;47.990;-1.608;2023-02-03T12:59:02;20.40;50.20
49379;DHT22;35254;47.990;-1.608;2023-02-03T13:01:49;20.40;50.00
49379;DHT22;35254;47.990;-1.608;2023-02-03T13:04:34;20.40;50.10
49379;DHT22;35254;47.990;-1.608;2023-02-03T13:12:40;20.40;49.90
49379;DHT22;35254;47.990;-1.608;2023-02-03T13:15:38;20.40;49.90
49379;DHT22;35254;47.990;-1.608;2023-02-03T13:20:35;20.30;50.10
49379;DHT22;35254;47.990;-1.608;2023-02-03T13:23:06;20.30;50.10
49379;DHT22;35254;47.990;-1.608;2023-02-03T13:31:40;20.30;50.10
49379;DHT22;35254;47.990;-1.608;2023-02-03T13:34:22;20.30;50.20
49379;DHT22;35254;47.990;-1.608;2023-02-03T13:42:20;20.30;50.30
49379;DHT22;35254;47.990;-1.608;2023-02-03T13:44:51;20.30;50.40
49379;DHT22;35254;47.990;-1.608;2023-02-03T13:47:23;20.30;50.50
49379;DHT22;35254;47.990;-1.608;2023-02-03T13:49:57;20.40;50.70
49379;DHT22;35254;47.990;-1.608;2023-02-03T13:52:44;20.30;50.90
49379;DHT22;35254;47.990;-1.608;2023-02-03T13:57:56;20.30;50.70
49379;DHT22;35254;47.990;-1.608;2023-02-03T14:03:15;20.30;50.80
49379;DHT22;35254;47.990;-1.608;2023-02-03T14:05:46;20.30;50.80
49379;DHT22;35254;47.990;-1.608;2023-02-03T14:16:38;20.40;51.00
49379;DHT22;35254;47.990;-1.608;2023-02-03T14:19:11;20.40;51.30
49379;DHT22;35254;47.990;-1.608;2023-02-03T14:24:09;20.40;51.10
49379;DHT22;35254;47.990;-1.608;2023-02-03T14:26:44;20.40;51.80
49379;DHT22;35254;47.990;-1.608;2023-02-03T14:29:24;20.30;51.70
49379;DHT22;35254;47.990;-1.608;2023-02-03T14:31:52;20.40;51.60
49379;DHT22;35254;47.990;-1.608;2023-02-03T14:34:30;20.40;51.30
49379;DHT22;35254;47.990;-1.608;2023-02-03T14:37:28;20.30;50.90
49379;DHT22;35254;47.990;-1.608;2023-02-03T14:40:13;20.20;50.80
49379;DHT22;35254;47.990;-1.608;2023-02-03T14:42:52;20.20;50.70
49379;DHT22;35254;47.990;-1.608;2023-02-03T14:45:27;20.30;50.80
49379;DHT22;35254;47.990;-1.608;2023-02-03T14:54:18;20.20;50.60
49379;DHT22;35254;47.990;-1.608;2023-02-03T14:56:59;20.20;50.50
49379;DHT22;35254;47.990;-1.608;2023-02-03T15:02:32;20.20;50.40
49379;DHT22;35254;47.990;-1.608;2023-02-03T15:07:39;20.20;50.60
49379;DHT22;35254;47.990;-1.608;2023-02-03T15:10:20;20.20;50.50
49379;DHT22;35254;47.990;-1.608;2023-02-03T15:17:48;20.20;50.60
49379;DHT22;35254;47.990;-1.608;2023-02-03T15:20:35;20.20;50.30
49379;DHT22;35254;47.990;-1.608;2023-02-03T15:23:38;20.20;50.20
49379;DHT22;35254;47.990;-1.608;2023-02-03T15:26:12;20.20;50.40
49379;DHT22;35254;47.990;-1.608;2023-02-03T15:28:38;20.30;50.50
49379;DHT22;35254;47.990;-1.608;2023-02-03T15:31:21;20.30;50.40
49379;DHT22;35254;47.990;-1.608;2023-02-03T15:33:50;20.30;50.40
49379;DHT22;35254;47.990;-1.608;2023-02-03T15:36:23;20.30;50.40
49379;DHT22;35254;47.990;-1.608;2023-02-03T15:41:40;20.20;50.30
49379;DHT22;35254;47.990;-1.608;2023-02-03T15:44:20;20.30;50.20
49379;DHT22;35254;47.990;-1.608;2023-02-03T15:46:49;20.30;50.20
49379;DHT22;35254;47.990;-1.608;2023-02-03T15:49:26;20.20;50.10
49379;DHT22;35254;47.990;-1.608;2023-02-03T15:52:01;20.30;50.10
49379;DHT22;35254;47.990;-1.608;2023-02-03T15:54:34;20.30;50.20
49379;DHT22;35254;47.990;-1.608;2023-02-03T15:57:31;20.30;50.20
49379;DHT22;35254;47.990;-1.608;2023-02-03T16:02:50;20.30;50.20
49379;DHT22;35254;47.990;-1.608;2023-02-03T16:05:35;20.30;50.20
49379;DHT22;35254;47.990;-1.608;2023-02-03T16:08:33;20.30;50.20
49379;DHT22;35254;47.990;-1.608;2023-02-03T16:11:00;20.30;50.10
49379;DHT22;35254;47.990;-1.608;2023-02-03T16:13:27;20.30;50.20
49379;DHT22;35254;47.990;-1.608;2023-02-03T16:16:14;20.20;50.20
49379;DHT22;35254;47.990;-1.608;2023-02-03T16:18:58;20.30;50.20
49379;DHT22;35254;47.990;-1.608;2023-02-03T16:23:54;20.20;50.20
49379;DHT22;35254;47.990;-1.608;2023-02-03T16:26:22;20.20;50.20
49379;DHT22;35254;47.990;-1.608;2023-02-03T16:31:51;20.20;50.20
49379;DHT22;35254;47.990;-1.608;2023-02-03T16:34:35;20.20;50.20
49379;DHT22;35254;47.990;-1.608;2023-02-03T16:37:25;20.20;50.20
49379;DHT22;35254;47.990;-1.608;2023-02-03T16:40:10;20.20;50.30
49379;DHT22;35254;47.990;-1.608;2023-02-03T16:42:55;20.20;50.20
49379;DHT22;35254;47.990;-1.608;2023-02-03T16:45:40;20.20;50.40
49379;DHT22;35254;47.990;-1.608;2023-02-03T16:48:24;20.20;50.40
49379;DHT22;35254;47.990;-1.608;2023-02-03T16:51:14;20.20;50.50
49379;DHT22;35254;47.990;-1.608;2023-02-03T16:53:44;20.20;50.50
49379;DHT22;35254;47.990;-1.608;2023-02-03T16:56:10;20.20;50.50
49379;DHT22;35254;47.990;-1.608;2023-02-03T16:58:37;20.30;50.70
49379;DHT22;35254;47.990;-1.608;2023-02-03T17:01:04;20.20;50.50
49379;DHT22;35254;47.990;-1.608;2023-02-03T17:03:31;20.20;50.50
49379;DHT22;35254;47.990;-1.608;2023-02-03T17:06:04;20.20;50.40
49379;DHT22;35254;47.990;-1.608;2023-02-03T17:08:30;20.20;49.90
49379;DHT22;35254;47.990;-1.608;2023-02-03T17:11:05;20.30;49.90
49379;DHT22;35254;47.990;-1.608;2023-02-03T17:13:31;20.20;49.90
49379;DHT22;35254;47.990;-1.608;2023-02-03T17:15:57;20.30;50.00
49379;DHT22;35254;47.990;-1.608;2023-02-03T17:18:23;20.20;50.10
49379;DHT22;35254;47.990;-1.608;2023-02-03T17:20:49;20.20;50.30
49379;DHT22;35254;47.990;-1.608;2023-02-03T17:23:15;20.30;50.30
49379;DHT22;35254;47.990;-1.608;2023-02-03T17:25:43;20.20;50.30
49379;DHT22;35254;47.990;-1.608;2023-02-03T17:28:10;20.20;50.10
49379;DHT22;35254;47.990;-1.608;2023-02-03T17:30:37;20.20;50.20
49379;DHT22;35254;47.990;-1.608;2023-02-03T17:33:05;20.20;50.20
49379;DHT22;35254;47.990;-1.608;2023-02-03T17:35:43;20.20;50.30
49379;DHT22;35254;47.990;-1.608;2023-02-03T17:38:10;20.20;50.30
49379;DHT22;35254;47.990;-1.608;2023-02-03T17:40:40;20.20;50.10
49379;DHT22;35254;47.990;-1.608;2023-02-03T17:43:06;20.20;50.20
49379;DHT22;35254;47.990;-1.608;2023-02-03T17:45:33;20.20;50.30
49379;DHT22;35254;47.990;-1.608;2023-02-03T17:47:58;20.20;50.20
49379;DHT22;35254;47.990;-1.608;2023-02-03T17:50:25;20.20;50.20
49379;DHT22;35254;47.990;-1.608;2023-02-03T17:52:51;20.20;50.10
49379;DHT22;35254;47.990;-1.608;2023-02-03T17:55:17;20.20;50.20
49379;DHT22;35254;47.990;-1.608;2023-02-03T17:57:43;20.20;50.20
49379;DHT22;35254;47.990;-1.608;2023-02-03T18:00:09;20.20;50.20
49379;DHT22;35254;47.990;-1.608;2023-02-03T18:02:35;20.30;50.20
49379;DHT22;35254;47.990;-1.608;2023-02-03T18:05:00;20.20;50.20
49379;DHT22;35254;47.990;-1.608;2023-02-03T18:07:27;20.20;50.20
49379;DHT22;35254;47.990;-1.608;2023-02-03T18:09:53;20.20;50.20
49379;DHT22;35254;47.990;-1.608;2023-02-03T18:12:18;20.20;50.20
49379;DHT22;35254;47.990;-1.608;2023-02-03T18:14:44;20.20;50.20